sensor_id;sensor_type;location;lat;lon;timestamp;pressure;altitude;pressure_sealevel;temperature;humidity
52307;BME280;38249;48.920;12.882;2022-07-01T00:00:32;96678.66;;;26.45;nan
52307;BME280;38249;48.920;12.882;2022-07-01T00:02:59;96660.38;;;26.28;nan
52307;BME280;38249;48.920;12.882;2022-07-01T00:05:25;96667.84;;;26.27;nan
52307;BME280;38249;48.920;12.882;2022-07-01T00:07:52;96671.41;;;26.24;nan
52307;BME280;38249;48.920;12.882;2022-07-01T00:10:18;96676.16;;;26.20;nan
52307;BME280;38249;48.920;12.882;2022-07-01T00:12:45;96673.06;;;26.14;nan
52307;BME280;38249;48.920;12.882;2022-07-01T00:15:12;96671.47;;;26.17;nan
52307;BME280;38249;48.920;12.882;2022-07-01T00:17:40;96672.94;;;26.29;nan
52307;BME280;38249;48.920;12.882;2022-07-01T00:20:10;96677.69;;;26.25;nan
52307;BME280;38249;48.920;12.882;2022-07-01T00:22:36;96676.94;;;26.21;nan
52307;BME280;38249;48.920;12.882;2022-07-01T00:25:04;96672.53;;;26.30;nan
52307;BME280;38249;48.920;12.882;2022-07-01T00:27:30;96671.47;;;26.17;nan
52307;BME280;38249;48.920;12.882;2022-07-01T00:29:57;96655.38;;;26.15;nan
52307;BME280;38249;48.920;12.882;2022-07-01T00:32:23;96658.88;;;26.20;nan
52307;BME280;38249;48.920;12.882;2022-07-01T00:34:51;96663.94;;;26.25;nan
52307;BME280;38249;48.920;12.882;2022-07-01T00:37:18;96653.09;;;26.10;nan
52307;BME280;38249;48.920;12.882;2022-07-01T00:39:44;96649.56;;;26.10;nan
52307;BME280;38249;48.920;12.882;2022-07-01T00:42:11;96645.59;;;26.14;nan
52307;BME280;38249;48.920;12.882;2022-07-01T00:44:37;96643.22;;;26.16;nan
52307;BME280;38249;48.920;12.882;2022-07-01T00:47:09;96651.97;;;26.42;nan
52307;BME280;38249;48.920;12.882;2022-07-01T00:49:36;96646.94;;;26.33;nan
52307;BME280;38249;48.920;12.882;2022-07-01T00:52:06;96648.03;;;26.43;nan
52307;BME280;38249;48.920;12.882;2022-07-01T00:54:35;96651.19;;;26.42;nan
52307;BME280;38249;48.920;12.882;2022-07-01T00:57:06;96651.13;;;26.49;nan
52307;BME280;38249;48.920;12.882;2022-07-01T00:59:32;96654.88;;;26.28;nan
52307;BME280;38249;48.920;12.882;2022-07-01T01:02:00;96665.88;;;26.28;nan
52307;BME280;38249;48.920;12.882;2022-07-01T01:04:26;96668.97;;;26.30;nan
52307;BME280;38249;48.920;12.882;2022-07-01T01:06:53;96678.78;;;26.31;nan
52307;BME280;38249;48.920;12.882;2022-07-01T01:09:21;96691.31;;;26.36;nan
52307;BME280;38249;48.920;12.882;2022-07-01T01:11:47;96705.25;;;26.14;nan
52307;BME280;38249;48.920;12.882;2022-07-01T01:14:15;96717.44;;;26.13;nan
52307;BME280;38249;48.920;12.882;2022-07-01T01:16:41;96732.75;;;26.10;nan
52307;BME280;38249;48.920;12.882;2022-07-01T01:19:08;96743.84;;;26.00;nan
52307;BME280;38249;48.920;12.882;2022-07-01T01:21:36;96747.66;;;26.13;nan
52307;BME280;38249;48.920;12.882;2022-07-01T01:24:03;96752.00;;;26.07;nan
52307;BME280;38249;48.920;12.882;2022-07-01T01:26:30;96742.59;;;26.04;nan
52307;BME280;38249;48.920;12.882;2022-07-01T01:28:57;96757.78;;;26.20;nan
52307;BME280;38249;48.920;12.882;2022-07-01T01:31:28;96756.88;;;26.33;nan
52307;BME280;38249;48.920;12.882;2022-07-01T01:33:55;96744.53;;;26.07;nan
52307;BME280;38249;48.920;12.882;2022-07-01T01:36:22;96729.97;;;26.14;nan
52307;BME280;38249;48.920;12.882;2022-07-01T01:38:49;96730.97;;;26.34;nan
52307;BME280;38249;48.920;12.882;2022-07-01T01:41:16;96733.06;;;26.20;nan
52307;BME280;38249;48.920;12.882;2022-07-01T01:43:42;96733.03;;;26.23;nan
52307;BME280;38249;48.920;12.882;2022-07-01T01:46:09;96726.41;;;26.17;nan
52307;BME280;38249;48.920;12.882;2022-07-01T01:48:35;96719.81;;;26.11;nan
52307;BME280;38249;48.920;12.882;2022-07-01T01:51:02;96715.13;;;26.08;nan
52307;BME280;38249;48.920;12.882;2022-07-01T01:53:28;96712.41;;;26.01;nan
52307;BME280;38249;48.920;12.882;2022-07-01T01:55:56;96706.03;;;26.14;nan
52307;BME280;38249;48.920;12.882;2022-07-01T01:58:22;96705.78;;;25.98;nan
52307;BME280;38249;48.920;12.882;2022-07-01T02:00:49;96695.56;;;25.98;nan
52307;BME280;38249;48.920;12.882;2022-07-01T02:03:15;96692.84;;;25.95;nan
52307;BME280;38249;48.920;12.882;2022-07-01T02:05:42;96689.72;;;25.96;nan
52307;BME280;38249;48.920;12.882;2022-07-01T02:08:08;96686.53;;;25.94;nan
52307;BME280;38249;48.920;12.882;2022-07-01T02:10:35;96683.84;;;25.91;nan
52307;BME280;38249;48.920;12.882;2022-07-01T02:13:02;96679.03;;;26.06;nan
52307;BME280;38249;48.920;12.882;2022-07-01T02:15:29;96686.19;;;25.92;nan
52307;BME280;38249;48.920;12.882;2022-07-01T02:17:55;96681.50;;;25.93;nan
52307;BME280;38249;48.920;12.882;2022-07-01T02:20:23;96684.91;;;26.04;nan
52307;BME280;38249;48.920;12.882;2022-07-01T02:22:49;96682.69;;;25.88;nan
52307;BME280;38249;48.920;12.882;2022-07-01T02:25:17;96687.75;;;25.97;nan
52307;BME280;38249;48.920;12.882;2022-07-01T02:27:44;96691.66;;;25.92;nan
52307;BME280;38249;48.920;12.882;2022-07-01T02:30:13;96705.28;;;26.10;nan
52307;BME280;38249;48.920;12.882;2022-07-01T02:32:39;96705.78;;;25.94;nan
52307;BME280;38249;48.920;12.882;2022-07-01T02:35:06;96708.91;;;26.00;nan
52307;BME280;38249;48.920;12.882;2022-07-01T02:37:33;96705.38;;;26.00;nan
52307;BME280;38249;48.920;12.882;2022-07-01T02:39:59;96708.13;;;26.00;nan
52307;BME280;38249;48.920;12.882;2022-07-01T02:42:26;96708.53;;;25.98;nan
52307;BME280;38249;48.920;12.882;2022-07-01T02:44:52;96704.97;;;26.01;nan
52307;BME280;38249;48.920;12.882;2022-07-01T02:47:21;96718.56;;;26.15;nan
52307;BME280;38249;48.920;12.882;2022-07-01T02:49:48;96733.22;;;25.94;nan
52307;BME280;38249;48.920;12.882;2022-07-01T02:52:16;96736.41;;;25.89;nan
52307;BME280;38249;48.920;12.882;2022-07-01T02:54:43;96739.66;;;25.77;nan
52307;BME280;38249;48.920;12.882;2022-07-01T02:57:09;96738.91;;;25.69;nan
52307;BME280;38249;48.920;12.882;2022-07-01T02:59:36;96735.81;;;25.67;nan
52307;BME280;38249;48.920;12.882;2022-07-01T03:02:03;96737.28;;;25.79;nan
52307;BME280;38249;48.920;12.882;2022-07-01T03:04:31;96728.19;;;25.89;nan
52307;BME280;38249;48.920;12.882;2022-07-01T03:06:57;96736.25;;;25.62;nan
52307;BME280;38249;48.920;12.882;2022-07-01T03:09:24;96730.78;;;25.55;nan
52307;BME280;38249;48.920;12.882;2022-07-01T03:11:51;96729.97;;;25.58;nan
52307;BME280;38249;48.920;12.882;2022-07-01T03:14:18;96730.81;;;25.51;nan
52307;BME280;38249;48.920;12.882;2022-07-01T03:16:45;96750.81;;;25.48;nan
52307;BME280;38249;48.920;12.882;2022-07-01T03:19:12;96762.16;;;25.50;nan
52307;BME280;38249;48.920;12.882;2022-07-01T03:21:40;96769.94;;;25.63;nan
52307;BME280;38249;48.920;12.882;2022-07-01T03:24:06;96770.81;;;25.45;nan
52307;BME280;38249;48.920;12.882;2022-07-01T03:26:33;96776.44;;;25.13;nan
52307;BME280;38249;48.920;12.882;2022-07-01T03:28:59;96781.09;;;25.27;nan
52307;BME280;38249;48.920;12.882;2022-07-01T03:31:26;96791.28;;;25.33;nan
52307;BME280;38249;48.920;12.882;2022-07-01T03:33:52;96800.22;;;25.45;nan
52307;BME280;38249;48.920;12.882;2022-07-01T03:36:19;96812.75;;;25.53;nan
52307;BME280;38249;48.920;12.882;2022-07-01T03:38:47;96818.47;;;25.80;nan
52307;BME280;38249;48.920;12.882;2022-07-01T03:41:13;96813.81;;;25.73;nan
52307;BME280;38249;48.920;12.882;2022-07-01T03:43:40;96821.22;;;25.76;nan
52307;BME280;38249;48.920;12.882;2022-07-01T03:46:06;96812.22;;;25.76;nan
52307;BME280;38249;48.920;12.882;2022-07-01T03:48:33;96818.44;;;25.84;nan
52307;BME280;38249;48.920;12.882;2022-07-01T03:50:59;96831.00;;;25.81;nan
52307;BME280;38249;48.920;12.882;2022-07-01T03:53:26;96831.00;;;25.81;nan
52307;BME280;38249;48.920;12.882;2022-07-01T03:56:11;96840.72;;;26.00;nan
52307;BME280;38249;48.920;12.882;2022-07-01T03:58:38;96836.16;;;25.68;nan
52307;BME280;38249;48.920;12.882;2022-07-01T04:01:04;96844.75;;;25.77;nan
52307;BME280;38249;48.920;12.882;2022-07-01T04:03:31;96854.53;;;25.82;nan
52307;BME280;38249;48.920;12.882;2022-07-01T04:05:57;96855.28;;;25.86;nan
52307;BME280;38249;48.920;12.882;2022-07-01T04:08:24;96841.59;;;25.83;nan
52307;BME280;38249;48.920;12.882;2022-07-01T04:10:51;96843.19;;;25.80;nan
52307;BME280;38249;48.920;12.882;2022-07-01T04:13:20;96852.91;;;25.92;nan
52307;BME280;38249;48.920;12.882;2022-07-01T04:15:46;96855.72;;;25.81;nan
52307;BME280;38249;48.920;12.882;2022-07-01T04:18:13;96854.16;;;25.80;nan
52307;BME280;38249;48.920;12.882;2022-07-01T04:20:40;96859.66;;;25.76;nan
52307;BME280;38249;48.920;12.882;2022-07-01T04:23:06;96868.28;;;25.75;nan
52307;BME280;38249;48.920;12.882;2022-07-01T04:25:32;96877.75;;;25.67;nan
52307;BME280;38249;48.920;12.882;2022-07-01T04:27:58;96877.38;;;25.61;nan
52307;BME280;38249;48.920;12.882;2022-07-01T04:30:28;96894.19;;;25.74;nan
52307;BME280;38249;48.920;12.882;2022-07-01T04:32:55;96900.16;;;25.54;nan
52307;BME280;38249;48.920;12.882;2022-07-01T04:35:21;96899.00;;;25.48;nan
52307;BME280;38249;48.920;12.882;2022-07-01T04:37:48;96904.88;;;25.50;nan
52307;BME280;38249;48.920;12.882;2022-07-01T04:40:14;96906.44;;;25.51;nan
52307;BME280;38249;48.920;12.882;2022-07-01T04:42:41;96905.66;;;25.47;nan
52307;BME280;38249;48.920;12.882;2022-07-01T04:45:06;96903.28;;;25.56;nan
52307;BME280;38249;48.920;12.882;2022-07-01T04:47:36;96900.88;;;25.73;nan
52307;BME280;38249;48.920;12.882;2022-07-01T04:50:03;96903.63;;;25.69;nan
52307;BME280;38249;48.920;12.882;2022-07-01T04:52:30;96904.47;;;25.59;nan
52307;BME280;38249;48.920;12.882;2022-07-01T04:54:56;96906.81;;;25.53;nan
52307;BME280;38249;48.920;12.882;2022-07-01T04:57:23;96913.13;;;25.54;nan
52307;BME280;38249;48.920;12.882;2022-07-01T04:59:50;96917.03;;;25.53;nan
52307;BME280;38249;48.920;12.882;2022-07-01T05:02:16;96931.50;;;25.57;nan
52307;BME280;38249;48.920;12.882;2022-07-01T05:04:44;96929.91;;;25.70;nan
52307;BME280;38249;48.920;12.882;2022-07-01T05:07:10;96926.81;;;25.57;nan
52307;BME280;38249;48.920;12.882;2022-07-01T05:09:53;96924.06;;;25.57;nan
52307;BME280;38249;48.920;12.882;2022-07-01T05:12:20;96928.00;;;25.53;nan
52307;BME280;38249;48.920;12.882;2022-07-01T05:14:46;96923.66;;;25.63;nan
52307;BME280;38249;48.920;12.882;2022-07-01T05:17:13;96925.94;;;25.75;nan
52307;BME280;38249;48.920;12.882;2022-07-01T05:19:40;96929.81;;;25.85;nan
52307;BME280;38249;48.920;12.882;2022-07-01T05:22:30;96937.63;;;26.01;nan
52307;BME280;38249;48.920;12.882;2022-07-01T05:24:57;96936.88;;;25.93;nan
52307;BME280;38249;48.920;12.882;2022-07-01T05:27:23;96939.63;;;25.89;nan
52307;BME280;38249;48.920;12.882;2022-07-01T05:29:50;96950.59;;;25.89;nan
52307;BME280;38249;48.920;12.882;2022-07-01T05:32:17;96956.56;;;25.66;nan
52307;BME280;38249;48.920;12.882;2022-07-01T05:34:44;96968.34;;;25.63;nan
52307;BME280;38249;48.920;12.882;2022-07-01T05:37:10;96975.09;;;25.44;nan
52307;BME280;38249;48.920;12.882;2022-07-01T05:39:38;96980.13;;;25.60;nan
52307;BME280;38249;48.920;12.882;2022-07-01T05:42:05;96972.72;;;25.46;nan
52307;BME280;38249;48.920;12.882;2022-07-01T05:44:31;96982.13;;;25.31;nan
52307;BME280;38249;48.920;12.882;2022-07-01T05:46:58;96975.50;;;25.28;nan
52307;BME280;38249;48.920;12.882;2022-07-01T05:49:24;96977.03;;;25.25;nan
52307;BME280;38249;48.920;12.882;2022-07-01T05:51:51;96971.94;;;25.20;nan
52307;BME280;38249;48.920;12.882;2022-07-01T05:54:17;96971.59;;;24.79;nan
52307;BME280;38249;48.920;12.882;2022-07-01T05:56:45;96964.50;;;25.03;nan
52307;BME280;38249;48.920;12.882;2022-07-01T05:59:12;96955.91;;;24.94;nan
52307;BME280;38249;48.920;12.882;2022-07-01T06:01:39;96951.97;;;25.09;nan
52307;BME280;38249;48.920;12.882;2022-07-01T06:04:06;96944.53;;;24.99;nan
52307;BME280;38249;48.920;12.882;2022-07-01T06:06:32;96945.31;;;25.14;nan
52307;BME280;38249;48.920;12.882;2022-07-01T06:08:58;96952.34;;;25.18;nan
52307;BME280;38249;48.920;12.882;2022-07-01T06:11:25;96953.56;;;25.06;nan
52307;BME280;38249;48.920;12.882;2022-07-01T06:13:53;96956.66;;;25.27;nan
52307;BME280;38249;48.920;12.882;2022-07-01T06:16:19;96960.97;;;25.20;nan
52307;BME280;38249;48.920;12.882;2022-07-01T06:18:46;96954.72;;;25.09;nan
52307;BME280;38249;48.920;12.882;2022-07-01T06:21:12;96948.81;;;25.32;nan
52307;BME280;38249;48.920;12.882;2022-07-01T06:23:40;96946.84;;;25.51;nan
52307;BME280;38249;48.920;12.882;2022-07-01T06:26:06;96929.50;;;25.72;nan
52307;BME280;38249;48.920;12.882;2022-07-01T06:28:33;96924.28;;;25.95;nan
52307;BME280;38249;48.920;12.882;2022-07-01T06:31:01;96919.09;;;26.19;nan
52307;BME280;38249;48.920;12.882;2022-07-01T06:33:28;96925.44;;;26.12;nan
52307;BME280;38249;48.920;12.882;2022-07-01T06:35:56;96922.94;;;26.32;nan
52307;BME280;38249;48.920;12.882;2022-07-01T06:38:23;96933.84;;;26.47;nan
52307;BME280;38249;48.920;12.882;2022-07-01T06:40:49;96937.41;;;26.44;nan
52307;BME280;38249;48.920;12.882;2022-07-01T06:43:30;96929.00;;;26.65;nan
52307;BME280;38249;48.920;12.882;2022-07-01T06:45:56;96935.06;;;26.39;nan
52307;BME280;38249;48.920;12.882;2022-07-01T06:48:24;96937.53;;;26.82;nan
52307;BME280;38249;48.920;12.882;2022-07-01T06:50:51;96941.38;;;26.92;nan
52307;BME280;38249;48.920;12.882;2022-07-01T06:53:17;96954.78;;;26.82;nan
52307;BME280;38249;48.920;12.882;2022-07-01T06:55:44;96954.06;;;26.78;nan
52307;BME280;38249;48.920;12.882;2022-07-01T06:58:10;96959.56;;;26.78;nan
52307;BME280;38249;48.920;12.882;2022-07-01T07:00:37;96963.41;;;26.88;nan
52307;BME280;38249;48.920;12.882;2022-07-01T07:03:04;96973.78;;;26.62;nan
52307;BME280;38249;48.920;12.882;2022-07-01T07:05:32;96982.19;;;26.33;nan
52307;BME280;38249;48.920;12.882;2022-07-01T07:07:58;96977.63;;;26.09;nan
52307;BME280;38249;48.920;12.882;2022-07-01T07:10:25;96985.56;;;25.78;nan
52307;BME280;38249;48.920;12.882;2022-07-01T07:12:51;96991.84;;;25.78;nan
52307;BME280;38249;48.920;12.882;2022-07-01T07:15:18;96980.16;;;25.53;nan
52307;BME280;38249;48.920;12.882;2022-07-01T07:17:45;96993.44;;;25.65;nan
52307;BME280;38249;48.920;12.882;2022-07-01T07:20:11;96981.75;;;25.25;nan
52307;BME280;38249;48.920;12.882;2022-07-01T07:22:39;96985.63;;;25.64;nan
52307;BME280;38249;48.920;12.882;2022-07-01T07:25:06;96991.91;;;25.50;nan
52307;BME280;38249;48.920;12.882;2022-07-01T07:27:32;97003.66;;;25.57;nan
52307;BME280;38249;48.920;12.882;2022-07-01T07:29:59;97012.28;;;25.59;nan
52307;BME280;38249;48.920;12.882;2022-07-01T07:32:25;97022.09;;;25.60;nan
52307;BME280;38249;48.920;12.882;2022-07-01T07:34:52;97011.13;;;25.50;nan
52307;BME280;38249;48.920;12.882;2022-07-01T07:37:19;97010.31;;;25.56;nan
52307;BME280;38249;48.920;12.882;2022-07-01T07:39:47;97000.44;;;25.84;nan
52307;BME280;38249;48.920;12.882;2022-07-01T07:42:13;97009.06;;;25.86;nan
52307;BME280;38249;48.920;12.882;2022-07-01T07:44:40;97016.09;;;25.91;nan
52307;BME280;38249;48.920;12.882;2022-07-01T07:47:06;97019.28;;;25.96;nan
52307;BME280;38249;48.920;12.882;2022-07-01T07:49:33;97029.81;;;26.05;nan
52307;BME280;38249;48.920;12.882;2022-07-01T07:51:59;97034.50;;;26.19;nan
52307;BME280;38249;48.920;12.882;2022-07-01T07:54:26;97034.06;;;26.28;nan
52307;BME280;38249;48.920;12.882;2022-07-01T07:56:54;97033.13;;;26.52;nan
52307;BME280;38249;48.920;12.882;2022-07-01T07:59:20;97037.16;;;26.37;nan
52307;BME280;38249;48.920;12.882;2022-07-01T08:01:47;97045.81;;;26.32;nan
52307;BME280;38249;48.920;12.882;2022-07-01T08:04:13;97049.75;;;26.27;nan
52307;BME280;38249;48.920;12.882;2022-07-01T08:06:40;97058.44;;;26.22;nan
52307;BME280;38249;48.920;12.882;2022-07-01T08:09:06;97053.72;;;26.15;nan
52307;BME280;38249;48.920;12.882;2022-07-01T08:11:32;97057.72;;;25.93;nan
52307;BME280;38249;48.920;12.882;2022-07-01T08:14:00;97060.84;;;26.02;nan
52307;BME280;38249;48.920;12.882;2022-07-01T08:16:27;97058.13;;;25.80;nan
52307;BME280;38249;48.920;12.882;2022-07-01T08:18:54;97047.56;;;25.65;nan
52307;BME280;38249;48.920;12.882;2022-07-01T08:21:21;97051.88;;;25.58;nan
52307;BME280;38249;48.920;12.882;2022-07-01T08:23:47;97069.16;;;25.45;nan
52307;BME280;38249;48.920;12.882;2022-07-01T08:26:14;97080.47;;;25.00;nan
52307;BME280;38249;48.920;12.882;2022-07-01T08:28:42;97062.84;;;24.94;nan
52307;BME280;38249;48.920;12.882;2022-07-01T08:31:10;97059.38;;;25.36;nan
52307;BME280;38249;48.920;12.882;2022-07-01T08:33:37;97056.97;;;25.67;nan
52307;BME280;38249;48.920;12.882;2022-07-01T08:36:04;97060.03;;;26.05;nan
52307;BME280;38249;48.920;12.882;2022-07-01T08:38:31;97075.75;;;25.79;nan
52307;BME280;38249;48.920;12.882;2022-07-01T08:40:57;97078.56;;;25.58;nan
52307;BME280;38249;48.920;12.882;2022-07-01T08:43:24;97075.38;;;25.67;nan
52307;BME280;38249;48.920;12.882;2022-07-01T08:45:51;97072.22;;;25.93;nan
52307;BME280;38249;48.920;12.882;2022-07-01T08:48:20;97078.78;;;26.36;nan
52307;BME280;38249;48.920;12.882;2022-07-01T08:50:46;97087.66;;;26.61;nan
52307;BME280;38249;48.920;12.882;2022-07-01T08:53:13;97079.94;;;27.12;nan
52307;BME280;38249;48.920;12.882;2022-07-01T08:55:40;97075.50;;;27.25;nan
52307;BME280;38249;48.920;12.882;2022-07-01T08:58:21;97084.25;;;27.17;nan
52307;BME280;38249;48.920;12.882;2022-07-01T09:00:48;97075.66;;;27.07;nan
52307;BME280;38249;48.920;12.882;2022-07-01T09:03:15;97073.06;;;27.42;nan
52307;BME280;38249;48.920;12.882;2022-07-01T09:05:49;97080.78;;;28.00;nan
52307;BME280;38249;48.920;12.882;2022-07-01T09:08:16;97078.47;;;27.94;nan
52307;BME280;38249;48.920;12.882;2022-07-01T09:10:42;97075.16;;;28.10;nan
52307;BME280;38249;48.920;12.882;2022-07-01T09:13:10;97066.88;;;28.45;nan
52307;BME280;38249;48.920;12.882;2022-07-01T09:15:38;97078.59;;;28.52;nan
52307;BME280;38249;48.920;12.882;2022-07-01T09:18:06;97077.38;;;28.57;nan
52307;BME280;38249;48.920;12.882;2022-07-01T09:20:36;97079.34;;;28.22;nan
52307;BME280;38249;48.920;12.882;2022-07-01T09:23:08;97074.84;;;28.01;nan
52307;BME280;38249;48.920;12.882;2022-07-01T09:25:36;97076.00;;;27.62;nan
52307;BME280;38249;48.920;12.882;2022-07-01T09:28:09;97078.16;;;27.43;nan
52307;BME280;38249;48.920;12.882;2022-07-01T09:30:39;97077.97;;;27.13;nan
52307;BME280;38249;48.920;12.882;2022-07-01T09:33:07;97077.34;;;26.87;nan
52307;BME280;38249;48.920;12.882;2022-07-01T09:35:34;97075.47;;;26.77;nan
52307;BME280;38249;48.920;12.882;2022-07-01T09:38:01;97082.41;;;26.92;nan
52307;BME280;38249;48.920;12.882;2022-07-01T09:40:48;97079.75;;;27.37;nan
52307;BME280;38249;48.920;12.882;2022-07-01T09:43:15;97082.16;;;27.35;nan
52307;BME280;38249;48.920;12.882;2022-07-01T09:45:50;97085.06;;;28.04;nan
52307;BME280;38249;48.920;12.882;2022-07-01T09:48:16;97088.72;;;28.28;nan
52307;BME280;38249;48.920;12.882;2022-07-01T09:50:43;97086.94;;;28.80;nan
52307;BME280;38249;48.920;12.882;2022-07-01T09:53:10;97107.53;;;28.99;nan
52307;BME280;38249;48.920;12.882;2022-07-01T09:55:37;97106.69;;;28.75;nan
52307;BME280;38249;48.920;12.882;2022-07-01T09:58:06;97099.63;;;28.74;nan
52307;BME280;38249;48.920;12.882;2022-07-01T10:00:35;97101.84;;;28.51;nan
52307;BME280;38249;48.920;12.882;2022-07-01T10:03:03;97105.78;;;28.20;nan
52307;BME280;38249;48.920;12.882;2022-07-01T10:05:34;97100.88;;;27.93;nan
52307;BME280;38249;48.920;12.882;2022-07-01T10:08:10;97107.03;;;28.11;nan
52307;BME280;38249;48.920;12.882;2022-07-01T10:10:44;97113.94;;;28.27;nan
52307;BME280;38249;48.920;12.882;2022-07-01T10:13:17;97121.50;;;28.23;nan
52307;BME280;38249;48.920;12.882;2022-07-01T10:15:48;97122.72;;;28.18;nan
52307;BME280;38249;48.920;12.882;2022-07-01T10:18:21;97120.03;;;28.45;nan
52307;BME280;38249;48.920;12.882;2022-07-01T10:20:48;97125.94;;;28.47;nan
52307;BME280;38249;48.920;12.882;2022-07-01T10:23:15;97119.97;;;28.83;nan
52307;BME280;38249;48.920;12.882;2022-07-01T10:25:43;97131.72;;;29.18;nan
52307;BME280;38249;48.920;12.882;2022-07-01T10:28:20;97128.53;;;29.20;nan
52307;BME280;38249;48.920;12.882;2022-07-01T10:30:52;97136.94;;;28.82;nan
52307;BME280;38249;48.920;12.882;2022-07-01T10:33:41;97124.84;;;28.38;nan
52307;BME280;38249;48.920;12.882;2022-07-01T10:36:14;97120.97;;;27.97;nan
52307;BME280;38249;48.920;12.882;2022-07-01T10:39:08;97126.91;;;27.88;nan
52307;BME280;38249;48.920;12.882;2022-07-01T10:41:37;97120.91;;;27.55;nan
52307;BME280;38249;48.920;12.882;2022-07-01T10:44:07;97126.41;;;27.55;nan
52307;BME280;38249;48.920;12.882;2022-07-01T10:46:38;97119.81;;;27.46;nan
52307;BME280;38249;48.920;12.882;2022-07-01T10:49:06;97123.06;;;27.26;nan
52307;BME280;38249;48.920;12.882;2022-07-01T10:51:45;97131.38;;;27.75;nan
52307;BME280;38249;48.920;12.882;2022-07-01T10:54:12;97133.56;;;27.46;nan
52307;BME280;38249;48.920;12.882;2022-07-01T10:56:40;97147.22;;;27.60;nan
52307;BME280;38249;48.920;12.882;2022-07-01T10:59:17;97142.84;;;27.66;nan
52307;BME280;38249;48.920;12.882;2022-07-01T11:01:44;97143.44;;;27.39;nan
52307;BME280;38249;48.920;12.882;2022-07-01T11:04:10;97149.72;;;27.43;nan
52307;BME280;38249;48.920;12.882;2022-07-01T11:06:37;97148.91;;;27.47;nan
52307;BME280;38249;48.920;12.882;2022-07-01T11:09:04;97135.53;;;27.49;nan
52307;BME280;38249;48.920;12.882;2022-07-01T11:11:30;97146.16;;;27.47;nan
52307;BME280;38249;48.920;12.882;2022-07-01T11:13:57;97152.03;;;27.49;nan
52307;BME280;38249;48.920;12.882;2022-07-01T11:16:27;97156.66;;;27.63;nan
52307;BME280;38249;48.920;12.882;2022-07-01T11:18:55;97154.06;;;27.45;nan
52307;BME280;38249;48.920;12.882;2022-07-01T11:21:23;97156.75;;;27.52;nan
52307;BME280;38249;48.920;12.882;2022-07-01T11:23:53;97159.44;;;27.59;nan
52307;BME280;38249;48.920;12.882;2022-07-01T11:26:22;97156.44;;;27.39;nan
52307;BME280;38249;48.920;12.882;2022-07-01T11:28:48;97156.25;;;27.04;nan
52307;BME280;38249;48.920;12.882;2022-07-01T11:31:15;97156.38;;;26.76;nan
52307;BME280;38249;48.920;12.882;2022-07-01T11:33:48;97164.69;;;26.65;nan
52307;BME280;38249;48.920;12.882;2022-07-01T11:36:15;97162.41;;;26.34;nan
52307;BME280;38249;48.920;12.882;2022-07-01T11:38:59;97163.19;;;26.28;nan
52307;BME280;38249;48.920;12.882;2022-07-01T11:41:43;97172.56;;;26.52;nan
52307;BME280;38249;48.920;12.882;2022-07-01T11:44:10;97164.03;;;25.89;nan
52307;BME280;38249;48.920;12.882;2022-07-01T11:46:36;97164.81;;;25.89;nan
52307;BME280;38249;48.920;12.882;2022-07-01T11:49:10;97176.97;;;26.10;nan
52307;BME280;38249;48.920;12.882;2022-07-01T11:51:37;97169.91;;;26.05;nan
52307;BME280;38249;48.920;12.882;2022-07-01T11:54:03;97165.19;;;25.95;nan
52307;BME280;38249;48.920;12.882;2022-07-01T11:56:31;97168.34;;;25.68;nan
52307;BME280;38249;48.920;12.882;2022-07-01T11:58:59;97171.09;;;25.54;nan
52307;BME280;38249;48.920;12.882;2022-07-01T12:01:28;97173.06;;;25.46;nan
52307;BME280;38249;48.920;12.882;2022-07-01T12:03:56;97174.63;;;25.51;nan
52307;BME280;38249;48.920;12.882;2022-07-01T12:06:25;97169.13;;;25.58;nan
52307;BME280;38249;48.920;12.882;2022-07-01T12:08:53;97167.19;;;25.62;nan
52307;BME280;38249;48.920;12.882;2022-07-01T12:11:23;97171.88;;;25.65;nan
52307;BME280;38249;48.920;12.882;2022-07-01T12:13:50;97169.53;;;25.64;nan
52307;BME280;38249;48.920;12.882;2022-07-01T12:16:17;97166.78;;;25.60;nan
52307;BME280;38249;48.920;12.882;2022-07-01T12:18:51;97173.84;;;25.97;nan
52307;BME280;38249;48.920;12.882;2022-07-01T12:21:18;97173.06;;;25.82;nan
52307;BME280;38249;48.920;12.882;2022-07-01T12:24:04;97173.44;;;26.13;nan
52307;BME280;38249;48.920;12.882;2022-07-01T12:26:31;97167.94;;;25.84;nan
52307;BME280;38249;48.920;12.882;2022-07-01T12:28:58;97176.97;;;25.34;nan
52307;BME280;38249;48.920;12.882;2022-07-01T12:31:24;97186.75;;;25.39;nan
52307;BME280;38249;48.920;12.882;2022-07-01T12:33:52;97194.63;;;25.51;nan
52307;BME280;38249;48.920;12.882;2022-07-01T12:36:18;97193.78;;;25.29;nan
52307;BME280;38249;48.920;12.882;2022-07-01T12:38:45;97206.72;;;25.29;nan
52307;BME280;38249;48.920;12.882;2022-07-01T12:41:28;97215.41;;;25.56;nan
52307;BME280;38249;48.920;12.882;2022-07-01T12:43:55;97214.88;;;25.11;nan
52307;BME280;38249;48.920;12.882;2022-07-01T12:46:27;97214.16;;;25.24;nan
52307;BME280;38249;48.920;12.882;2022-07-01T12:48:54;97224.25;;;24.95;nan
52307;BME280;38249;48.920;12.882;2022-07-01T12:51:21;97231.22;;;24.78;nan
52307;BME280;38249;48.920;12.882;2022-07-01T12:53:48;97226.50;;;24.75;nan
52307;BME280;38249;48.920;12.882;2022-07-01T12:56:22;97222.72;;;25.12;nan
52307;BME280;38249;48.920;12.882;2022-07-01T12:58:50;97221.91;;;25.04;nan
52307;BME280;38249;48.920;12.882;2022-07-01T13:01:18;97237.50;;;24.79;nan
52307;BME280;38249;48.920;12.882;2022-07-01T13:03:45;97234.75;;;24.79;nan
52307;BME280;38249;48.920;12.882;2022-07-01T13:06:12;97246.81;;;24.67;nan
52307;BME280;38249;48.920;12.882;2022-07-01T13:08:38;97258.63;;;24.75;nan
52307;BME280;38249;48.920;12.882;2022-07-01T13:11:05;97265.25;;;24.74;nan
52307;BME280;38249;48.920;12.882;2022-07-01T13:13:32;97269.97;;;24.73;nan